Clearlake Oaks, California
Current Conditions -  °F | °C
As of 11:56 AM on Friday 28 Nov 2014 (Local Time) from KUKI Reporting Station
Overcast Overcast  
Wind Chill: 49°   Ceiling: 2500
Heat Index: 49°   Visibility: 10mi
Dew Point: 44°   Wind: 0mph
Humidity: 83%   Direction: NA
Pressure: 29.98"   Gusts: NA
Location:  39.02°N, 122.68°W
Report Text: KUKI 281956Z AUTO 00000KT 10SM OVC025 09/07 A2998 RMK AO2 RAB1858E31 SLP149 P0000 T00940067
Loading
Personal Weather Stations






























Interactive Weather Map New forecast layout! Learn more

10-Day Weather Forecast

Advertisements
Track Severe Weather on mobile